Time;durP1;ratioP1;P1;durP2;ratioP2;P2;SDS_P1;SDS_P2;PMS_P1;PMS_P2;Temp;Humidity;BMP_temperature;BMP_pressure;BME280_temperature;BME280_humidity;BME280_pressure;Samples;Min_cycle;Max_cycle;Signal;HPM_P1;HPM_P2
2022/10/17 00:01:50;;;;;;;12.30;2.85;;;;;;;;;;4982691;28;20066;-66
2022/10/17 00:04:16;;;;;;;14.07;4.30;;;;;;;;;;4982721;28;20058;-65
2022/10/17 00:06:42;;;;;;;15.35;3.17;;;;;;;;;;4981048;28;20042;-65
2022/10/17 00:09:08;;;;;;;11.65;3.17;;;;;;;;;;4980672;28;20046;-65
2022/10/17 00:11:35;;;;;;;12.20;2.78;;;;;;;;;;4981334;28;20042;-65
2022/10/17 00:14:01;;;;;;;18.88;3.55;;;;;;;;;;4979149;28;20077;-65
2022/10/17 00:16:29;;;;;;;17.27;3.45;;;;;;;;;;4979882;28;20043;-65
2022/10/17 00:18:56;;;;;;;19.55;3.85;;;;;;;;;;4982280;28;20061;-65
2022/10/17 00:21:23;;;;;;;11.15;2.90;;;;;;;;;;4983630;28;20038;-65
2022/10/17 00:23:49;;;;;;;11.90;3.00;;;;;;;;;;4979972;28;20050;-65
2022/10/17 00:26:16;;;;;;;18.65;3.50;;;;;;;;;;4983536;28;20564;-65
2022/10/17 00:28:42;;;;;;;16.15;2.90;;;;;;;;;;4981810;28;20435;-65
2022/10/17 00:31:08;;;;;;;13.10;2.85;;;;;;;;;;4982526;28;20120;-65
2022/10/17 00:33:35;;;;;;;12.25;2.80;;;;;;;;;;4980867;28;20054;-65
2022/10/17 00:36:02;;;;;;;11.55;2.83;;;;;;;;;;4978823;28;20054;-65
2022/10/17 00:38:28;;;;;;;15.85;3.15;;;;;;;;;;4981294;28;20054;-66
2022/10/17 00:40:54;;;;;;;12.80;3.30;;;;;;;;;;4984873;28;20050;-65
2022/10/17 00:43:20;;;;;;;17.65;3.40;;;;;;;;;;4980139;28;20176;-65
2022/10/17 00:45:47;;;;;;;11.73;3.40;;;;;;;;;;4981010;28;20124;-65
2022/10/17 00:48:14;;;;;;;13.07;3.17;;;;;;;;;;4977388;28;20069;-65
2022/10/17 00:50:42;;;;;;;10.95;3.50;;;;;;;;;;4982040;28;20096;-65
2022/10/17 00:53:09;;;;;;;12.75;3.35;;;;;;;;;;4979121;28;20116;-65
2022/10/17 00:55:38;;;;;;;13.50;3.53;;;;;;;;;;4984068;28;20057;-65
2022/10/17 00:58:06;;;;;;;8.55;3.33;;;;;;;;;;4964122;28;20070;-65
2022/10/17 01:00:32;;;;;;;11.07;3.65;;;;;;;;;;4977757;28;20042;-66
2022/10/17 01:02:58;;;;;;;13.35;3.65;;;;;;;;;;4981028;28;20047;-65
2022/10/17 01:05:24;;;;;;;11.82;3.40;;;;;;;;;;4982379;28;20046;-65
2022/10/17 01:07:52;;;;;;;12.45;3.33;;;;;;;;;;4979666;28;20038;-65
2022/10/17 01:10:18;;;;;;;11.02;3.38;;;;;;;;;;4981498;28;20058;-65
2022/10/17 01:12:52;;;;;;;9.48;3.75;;;;;;;;;;4964192;28;20057;-66
2022/10/17 01:15:25;;;;;;;13.98;3.67;;;;;;;;;;4983947;28;20042;-65
2022/10/17 01:17:51;;;;;;;14.23;4.73;;;;;;;;;;4985541;28;20047;-65
2022/10/17 01:20:36;;;;;;;9.93;3.85;;;;;;;;;;4965040;28;20313;-65
2022/10/17 01:23:03;;;;;;;10.93;4.32;;;;;;;;;;4981491;28;20054;-65
2022/10/17 01:25:47;;;;;;;12.30;4.10;;;;;;;;;;4966876;28;20201;-65
2022/10/17 01:28:32;;;;;;;12.02;3.70;;;;;;;;;;4982494;28;20043;-66
2022/10/17 01:31:07;;;;;;;13.85;4.10;;;;;;;;;;4983843;28;20081;-65
2022/10/17 01:33:34;;;;;;;17.98;5.55;;;;;;;;;;4984840;28;20181;-65
2022/10/17 01:36:08;;;;;;;12.00;4.13;;;;;;;;;;4984950;28;20046;-65
2022/10/17 01:38:37;;;;;;;12.18;4.18;;;;;;;;;;4981960;28;20185;-66
2022/10/17 01:41:06;;;;;;;14.40;4.32;;;;;;;;;;4963957;28;20156;-65
2022/10/17 01:43:37;;;;;;;9.80;4.18;;;;;;;;;;4967690;28;20211;-65
2022/10/17 01:46:10;;;;;;;14.65;5.05;;;;;;;;;;4966299;28;20058;-65
2022/10/17 01:48:37;;;;;;;19.85;5.28;;;;;;;;;;4985205;28;20038;-65
2022/10/17 01:51:08;;;;;;;17.58;5.57;;;;;;;;;;4970938;28;20096;-65
2022/10/17 01:53:36;;;;;;;15.07;5.55;;;;;;;;;;4991829;28;20109;-65
2022/10/17 01:56:05;;;;;;;13.65;4.70;;;;;;;;;;4990479;28;20038;-65
2022/10/17 01:58:32;;;;;;;14.05;5.13;;;;;;;;;;4989931;28;20061;-65
2022/10/17 02:01:01;;;;;;;12.32;4.75;;;;;;;;;;4986686;28;20038;-66
2022/10/17 02:03:28;;;;;;;14.25;5.22;;;;;;;;;;4988333;28;20509;-65
2022/10/17 02:05:54;;;;;;;20.05;6.25;;;;;;;;;;4967604;28;20112;-65
2022/10/17 02:08:26;;;;;;;12.85;4.93;;;;;;;;;;4985570;28;20160;-65
2022/10/17 02:10:53;;;;;;;17.25;5.55;;;;;;;;;;4967604;28;20064;-65
2022/10/17 02:13:27;;;;;;;12.95;5.47;;;;;;;;;;4977112;28;20038;-65
2022/10/17 02:15:59;;;;;;;23.00;5.53;;;;;;;;;;4979483;28;20064;-65
2022/10/17 02:18:36;;;;;;;13.43;5.30;;;;;;;;;;4980033;28;20038;-65
2022/10/17 02:21:08;;;;;;;9.88;5.05;;;;;;;;;;4980425;28;20051;-65
2022/10/17 02:23:38;;;;;;;12.25;5.68;;;;;;;;;;4979967;28;20042;-65
2022/10/17 02:26:07;;;;;;;14.43;5.13;;;;;;;;;;4978960;28;20050;-65
2022/10/17 02:28:33;;;;;;;14.30;6.20;;;;;;;;;;4981058;28;20042;-65
2022/10/17 02:31:03;;;;;;;11.98;5.30;;;;;;;;;;4981116;28;20944;-65
2022/10/17 02:33:33;;;;;;;15.95;7.07;;;;;;;;;;4976172;28;20046;-65
2022/10/17 02:36:02;;;;;;;12.57;5.55;;;;;;;;;;4979147;28;20350;-65
2022/10/17 02:38:28;;;;;;;13.85;5.55;;;;;;;;;;4979746;28;20053;-65
2022/10/17 02:40:55;;;;;;;13.40;5.95;;;;;;;;;;4980711;28;20129;-65
2022/10/17 02:43:22;;;;;;;15.23;5.78;;;;;;;;;;4979520;28;20073;-63
2022/10/17 02:45:49;;;;;;;15.35;6.18;;;;;;;;;;4978998;28;20175;-63
2022/10/17 02:48:16;;;;;;;23.02;6.50;;;;;;;;;;4979637;28;20042;-65
2022/10/17 02:50:48;;;;;;;15.73;6.00;;;;;;;;;;4980019;28;20141;-65
2022/10/17 02:53:17;;;;;;;11.45;6.32;;;;;;;;;;4981054;28;20050;-65
2022/10/17 02:55:48;;;;;;;15.25;6.55;;;;;;;;;;4981043;28;20556;-65
2022/10/17 02:58:18;;;;;;;11.15;6.25;;;;;;;;;;4976973;28;20092;-65
2022/10/17 03:00:44;;;;;;;12.15;7.22;;;;;;;;;;4978324;28;20058;-65
2022/10/17 03:03:24;;;;;;;12.80;7.38;;;;;;;;;;4977535;28;20096;-65
2022/10/17 03:05:51;;;;;;;12.32;7.10;;;;;;;;;;4977968;28;20149;-65
2022/10/17 03:08:17;;;;;;;16.55;7.63;;;;;;;;;;4980944;28;20034;-65
2022/10/17 03:10:43;;;;;;;13.73;9.13;;;;;;;;;;4980051;28;20050;-65
2022/10/17 03:13:09;;;;;;;21.42;9.13;;;;;;;;;;4964680;28;20610;-65
2022/10/17 03:15:35;;;;;;;15.63;9.07;;;;;;;;;;4981089;28;20201;-66
2022/10/17 03:18:02;;;;;;;14.25;9.30;;;;;;;;;;4978050;28;20045;-65
2022/10/17 03:20:28;;;;;;;20.42;9.60;;;;;;;;;;4979141;28;20085;-65
2022/10/17 03:22:54;;;;;;;17.55;10.27;;;;;;;;;;4981379;28;20584;-65
2022/10/17 03:25:20;;;;;;;20.55;9.93;;;;;;;;;;4979256;28;20042;-65
2022/10/17 03:27:47;;;;;;;19.17;11.10;;;;;;;;;;4980798;28;20068;-65
2022/10/17 03:30:13;;;;;;;20.10;11.32;;;;;;;;;;4983677;28;20533;-65
2022/10/17 03:32:39;;;;;;;14.48;10.68;;;;;;;;;;4981638;28;20057;-65
2022/10/17 03:35:05;;;;;;;17.50;11.73;;;;;;;;;;4979944;28;20113;-65
2022/10/17 03:37:32;;;;;;;16.20;11.82;;;;;;;;;;4982200;28;20524;-65
2022/10/17 03:39:58;;;;;;;21.60;11.55;;;;;;;;;;4984156;28;20417;-65
2022/10/17 03:42:24;;;;;;;20.75;11.73;;;;;;;;;;4979973;28;20495;-65
2022/10/17 03:44:50;;;;;;;22.38;12.63;;;;;;;;;;4984332;28;20447;-65
2022/10/17 03:47:16;;;;;;;21.40;13.02;;;;;;;;;;4980052;28;20124;-65
2022/10/17 03:49:42;;;;;;;15.88;11.88;;;;;;;;;;4980410;28;20042;-65
2022/10/17 03:52:12;;;;;;;21.90;14.07;;;;;;;;;;4982234;28;20068;-65
2022/10/17 03:54:38;;;;;;;18.83;13.57;;;;;;;;;;4983032;28;20057;-65
2022/10/17 03:57:05;;;;;;;22.75;13.45;;;;;;;;;;4982837;28;20576;-65
2022/10/17 03:59:31;;;;;;;21.85;13.80;;;;;;;;;;4984001;28;20506;-65
2022/10/17 04:01:57;;;;;;;16.77;13.10;;;;;;;;;;4982237;28;20073;-65
2022/10/17 04:04:23;;;;;;;18.73;13.77;;;;;;;;;;4984203;28;20985;-65
2022/10/17 04:06:49;;;;;;;17.38;14.23;;;;;;;;;;4980448;28;20136;-65
2022/10/17 04:09:16;;;;;;;21.13;14.40;;;;;;;;;;4980660;28;20049;-65
2022/10/17 04:11:42;;;;;;;23.92;15.68;;;;;;;;;;4981145;28;20050;-65
2022/10/17 04:14:09;;;;;;;20.52;15.73;;;;;;;;;;4982297;28;21131;-65
2022/10/17 04:16:35;;;;;;;22.23;16.42;;;;;;;;;;4963998;28;20042;-65
2022/10/17 04:19:02;;;;;;;25.55;16.50;;;;;;;;;;4983985;28;20053;-65
2022/10/17 04:21:28;;;;;;;20.65;15.82;;;;;;;;;;4981876;28;20513;-65
2022/10/17 04:23:55;;;;;;;23.08;16.15;;;;;;;;;;4982106;28;20077;-65
2022/10/17 04:26:21;;;;;;;24.45;16.77;;;;;;;;;;4982481;28;20050;-65
2022/10/17 04:28:48;;;;;;;21.23;17.05;;;;;;;;;;4981750;28;20121;-65
2022/10/17 04:31:14;;;;;;;26.52;18.00;;;;;;;;;;4982156;28;20458;-65
2022/10/17 04:33:40;;;;;;;25.55;18.48;;;;;;;;;;4979243;28;20097;-65
2022/10/17 04:36:09;;;;;;;31.60;19.63;;;;;;;;;;4980609;28;20050;-65
2022/10/17 04:38:35;;;;;;;32.95;19.83;;;;;;;;;;4980548;28;20112;-65
2022/10/17 04:41:02;;;;;;;28.00;19.75;;;;;;;;;;4979276;28;20105;-65
2022/10/17 04:43:30;;;;;;;28.52;19.98;;;;;;;;;;4978694;28;20057;-65
2022/10/17 04:45:57;;;;;;;28.02;20.25;;;;;;;;;;4978003;28;20581;-65
2022/10/17 04:48:23;;;;;;;30.85;20.83;;;;;;;;;;4980339;28;20050;-65
2022/10/17 04:50:54;;;;;;;32.22;22.33;;;;;;;;;;4982454;28;20401;-65
2022/10/17 04:53:21;;;;;;;34.50;22.45;;;;;;;;;;4979195;28;20046;-65
2022/10/17 04:55:47;;;;;;;30.90;22.27;;;;;;;;;;4980932;28;20132;-65
2022/10/17 04:58:13;;;;;;;31.83;22.00;;;;;;;;;;4980351;28;20062;-65
2022/10/17 05:00:39;;;;;;;32.03;22.25;;;;;;;;;;4981759;28;21710;-66
2022/10/17 05:03:06;;;;;;;34.58;24.23;;;;;;;;;;4979291;28;20561;-65
2022/10/17 05:05:32;;;;;;;32.22;22.48;;;;;;;;;;4981119;28;20051;-65
2022/10/17 05:07:58;;;;;;;43.63;24.95;;;;;;;;;;4980670;28;20149;-65
2022/10/17 05:10:24;;;;;;;29.27;23.48;;;;;;;;;;4975532;28;20104;-65
2022/10/17 05:12:50;;;;;;;34.53;24.55;;;;;;;;;;4980523;28;20351;-65
2022/10/17 05:15:17;;;;;;;37.92;24.02;;;;;;;;;;4980978;28;20096;-75
2022/10/17 05:17:43;;;;;;;32.15;23.33;;;;;;;;;;4979431;28;20039;-65
2022/10/17 05:20:09;;;;;;;35.42;23.80;;;;;;;;;;4980955;28;20042;-65
2022/10/17 05:22:35;;;;;;;30.70;23.70;;;;;;;;;;4981591;28;20074;-65
2022/10/17 05:25:01;;;;;;;28.90;22.70;;;;;;;;;;4981204;28;20043;-65
2022/10/17 05:27:27;;;;;;;32.05;23.65;;;;;;;;;;4980280;28;20042;-65
2022/10/17 05:29:54;;;;;;;32.60;22.70;;;;;;;;;;4979129;28;20056;-66
2022/10/17 05:32:21;;;;;;;31.80;22.20;;;;;;;;;;4979566;28;20084;-65
2022/10/17 05:34:47;;;;;;;55.22;23.00;;;;;;;;;;4981336;28;20047;-65
2022/10/17 05:37:13;;;;;;;36.65;22.48;;;;;;;;;;4984943;28;20049;-64
2022/10/17 05:39:39;;;;;;;31.52;24.10;;;;;;;;;;4985771;28;20121;-65
2022/10/17 05:42:07;;;;;;;30.25;22.33;;;;;;;;;;4982197;28;20544;-65
2022/10/17 05:44:33;;;;;;;30.45;22.42;;;;;;;;;;4982981;28;20037;-65
2022/10/17 05:46:59;;;;;;;35.25;23.45;;;;;;;;;;4979751;28;20152;-65
2022/10/17 05:49:26;;;;;;;28.15;23.15;;;;;;;;;;4981335;28;20039;-65
2022/10/17 05:51:52;;;;;;;33.03;23.98;;;;;;;;;;4984572;28;20481;-65
2022/10/17 05:54:18;;;;;;;37.35;23.25;;;;;;;;;;4983959;28;20565;-65
2022/10/17 05:56:44;;;;;;;29.38;22.50;;;;;;;;;;4983722;28;20038;-65
2022/10/17 05:59:10;;;;;;;32.72;22.73;;;;;;;;;;4981859;28;20045;-65
2022/10/17 06:01:36;;;;;;;32.53;22.98;;;;;;;;;;4985198;28;20389;-65
2022/10/17 06:04:02;;;;;;;34.30;22.98;;;;;;;;;;4983184;28;20444;-65
2022/10/17 06:06:29;;;;;;;34.00;24.00;;;;;;;;;;4980686;28;20042;-65
2022/10/17 06:08:55;;;;;;;37.42;24.23;;;;;;;;;;4978844;28;20053;-65
2022/10/17 06:11:21;;;;;;;35.83;23.55;;;;;;;;;;4980115;28;20161;-65
2022/10/17 06:13:47;;;;;;;35.35;23.20;;;;;;;;;;4983728;28;20109;-64
2022/10/17 06:16:13;;;;;;;30.10;22.27;;;;;;;;;;4981279;28;20096;-65
2022/10/17 06:18:39;;;;;;;34.92;23.35;;;;;;;;;;4980768;28;20497;-65
2022/10/17 06:21:07;;;;;;;34.50;22.55;;;;;;;;;;4979717;28;20046;-68
2022/10/17 06:23:33;;;;;;;33.28;21.38;;;;;;;;;;4976530;28;20050;-65
2022/10/17 06:26:00;;;;;;;34.65;21.77;;;;;;;;;;4981566;28;20050;-65
2022/10/17 06:28:26;;;;;;;37.15;21.92;;;;;;;;;;4982555;28;20061;-70
2022/10/17 06:30:53;;;;;;;30.83;21.20;;;;;;;;;;4973389;28;20140;-66
2022/10/17 06:33:20;;;;;;;38.78;23.15;;;;;;;;;;4977393;28;20048;-66
2022/10/17 06:35:51;;;;;;;32.60;22.00;;;;;;;;;;4980722;28;20054;-66
2022/10/17 06:38:17;;;;;;;31.02;22.48;;;;;;;;;;4979728;28;20145;-65
2022/10/17 06:40:43;;;;;;;30.08;20.90;;;;;;;;;;4981621;28;20069;-65
2022/10/17 06:43:09;;;;;;;33.65;22.23;;;;;;;;;;4982285;28;20387;-65
2022/10/17 06:45:38;;;;;;;28.20;19.75;;;;;;;;;;4980661;28;20093;-65
2022/10/17 06:48:04;;;;;;;29.30;19.65;;;;;;;;;;4982011;28;20038;-66
2022/10/17 06:50:30;;;;;;;33.08;20.70;;;;;;;;;;4981738;28;20085;-66
2022/10/17 06:52:56;;;;;;;26.35;19.23;;;;;;;;;;4978666;28;20050;-66
2022/10/17 06:55:23;;;;;;;37.28;19.65;;;;;;;;;;4978727;28;20049;-65
2022/10/17 06:57:51;;;;;;;28.40;19.25;;;;;;;;;;4982756;28;20042;-68
2022/10/17 07:00:17;;;;;;;27.50;19.20;;;;;;;;;;4981108;28;20056;-65
2022/10/17 07:02:43;;;;;;;29.30;18.45;;;;;;;;;;4984443;28;20075;-74
2022/10/17 07:05:10;;;;;;;28.15;17.98;;;;;;;;;;4984248;28;20034;-65
2022/10/17 07:07:36;;;;;;;29.23;18.83;;;;;;;;;;4985266;28;20054;-64
2022/10/17 07:10:07;;;;;;;24.35;17.67;;;;;;;;;;4988652;28;20061;-64
2022/10/17 07:12:34;;;;;;;26.48;17.55;;;;;;;;;;4974389;28;20129;-64
2022/10/17 07:15:00;;;;;;;33.85;18.88;;;;;;;;;;4984915;28;20039;-65
2022/10/17 07:17:26;;;;;;;25.50;17.05;;;;;;;;;;4985914;28;20051;-65
2022/10/17 07:19:52;;;;;;;24.73;17.13;;;;;;;;;;4984212;28;20426;-65
2022/10/17 07:22:19;;;;;;;21.85;16.73;;;;;;;;;;4985763;28;20499;-65
2022/10/17 07:24:45;;;;;;;24.20;15.93;;;;;;;;;;4984436;28;20058;-65
2022/10/17 07:27:12;;;;;;;20.80;15.93;;;;;;;;;;4988223;28;20042;-65
2022/10/17 07:29:38;;;;;;;24.25;16.42;;;;;;;;;;4987005;28;20051;-65
2022/10/17 07:32:07;;;;;;;24.75;16.27;;;;;;;;;;4983365;28;20038;-65
2022/10/17 07:34:34;;;;;;;23.38;15.88;;;;;;;;;;4984768;28;20160;-66
2022/10/17 07:37:00;;;;;;;24.25;16.58;;;;;;;;;;4986883;28;20038;-65
2022/10/17 07:39:26;;;;;;;20.83;15.00;;;;;;;;;;4980166;28;20042;-65
2022/10/17 07:41:52;;;;;;;20.83;15.27;;;;;;;;;;4984012;28;20042;-65
2022/10/17 07:44:18;;;;;;;19.88;15.27;;;;;;;;;;4985583;28;20073;-65
2022/10/17 07:46:45;;;;;;;21.67;16.33;;;;;;;;;;4983960;28;20049;-65
2022/10/17 07:49:11;;;;;;;21.38;15.02;;;;;;;;;;4986825;28;20046;-65
2022/10/17 07:51:37;;;;;;;20.05;15.30;;;;;;;;;;4978743;28;20086;-65
2022/10/17 07:54:05;;;;;;;28.63;15.65;;;;;;;;;;4983372;28;20046;-64
2022/10/17 07:56:32;;;;;;;21.85;15.27;;;;;;;;;;4965887;28;20042;-72
2022/10/17 07:58:58;;;;;;;22.58;15.32;;;;;;;;;;4980881;28;20046;-68
2022/10/17 08:01:25;;;;;;;20.35;14.30;;;;;;;;;;4980128;28;20053;-66
2022/10/17 08:03:51;;;;;;;18.00;14.00;;;;;;;;;;4983597;28;20072;-68
2022/10/17 08:06:17;;;;;;;23.35;15.25;;;;;;;;;;4985831;28;20045;-68
2022/10/17 08:08:44;;;;;;;24.27;16.00;;;;;;;;;;4982413;28;20057;-65
2022/10/17 08:11:11;;;;;;;20.35;14.65;;;;;;;;;;4976598;28;20157;-58
2022/10/17 08:13:39;;;;;;;20.52;14.32;;;;;;;;;;4968339;28;20058;-58
2022/10/17 08:16:06;;;;;;;24.52;14.70;;;;;;;;;;4970868;28;20046;-58
2022/10/17 08:18:33;;;;;;;17.80;14.10;;;;;;;;;;4947211;28;20046;-58
2022/10/17 08:21:00;;;;;;;23.88;14.60;;;;;;;;;;4966983;28;20070;-64
2022/10/17 08:23:27;;;;;;;17.67;13.07;;;;;;;;;;4963848;28;20148;-64
2022/10/17 08:25:53;;;;;;;23.50;13.98;;;;;;;;;;4966500;28;20050;-64
2022/10/17 08:28:19;;;;;;;19.25;13.38;;;;;;;;;;4951922;28;20122;-64
2022/10/17 08:30:45;;;;;;;17.88;14.43;;;;;;;;;;4969523;28;20145;-64
2022/10/17 08:33:11;;;;;;;21.08;13.48;;;;;;;;;;4967657;28;20045;-64
2022/10/17 08:35:37;;;;;;;21.27;14.65;;;;;;;;;;4965444;28;20038;-65
2022/10/17 08:38:04;;;;;;;19.35;14.60;;;;;;;;;;4962899;28;20092;-65
2022/10/17 08:40:32;;;;;;;22.05;14.73;;;;;;;;;;4965689;28;20093;-64
2022/10/17 08:43:04;;;;;;;21.73;14.32;;;;;;;;;;4962689;28;21849;-64
2022/10/17 08:45:45;;;;;;;21.35;14.65;;;;;;;;;;4969374;28;20392;-64
2022/10/17 08:48:14;;;;;;;21.70;14.30;;;;;;;;;;4967115;28;20043;-64
2022/10/17 08:50:43;;;;;;;20.58;14.80;;;;;;;;;;4968813;28;20035;-64
2022/10/17 08:53:19;;;;;;;23.95;15.15;;;;;;;;;;4969578;28;20404;-65
2022/10/17 08:55:46;;;;;;;17.25;13.27;;;;;;;;;;4968057;28;20042;-65
2022/10/17 08:58:14;;;;;;;21.42;14.60;;;;;;;;;;4968843;28;20061;-65
2022/10/17 09:00:42;;;;;;;19.85;14.45;;;;;;;;;;4951428;28;20731;-62
2022/10/17 09:03:14;;;;;;;21.30;14.35;;;;;;;;;;4968480;28;21062;-65
2022/10/17 09:05:45;;;;;;;18.13;14.13;;;;;;;;;;4968936;28;20487;-62
2022/10/17 09:08:17;;;;;;;19.42;14.73;;;;;;;;;;4969132;28;20051;-63
2022/10/17 09:10:55;;;;;;;19.70;15.32;;;;;;;;;;4966270;28;20938;-63
2022/10/17 09:13:36;;;;;;;21.98;15.90;;;;;;;;;;4966599;28;20053;-63
2022/10/17 09:16:15;;;;;;;21.42;16.13;;;;;;;;;;4962968;28;20517;-63
2022/10/17 09:18:45;;;;;;;25.45;16.33;;;;;;;;;;4962412;28;20045;-63
2022/10/17 09:21:17;;;;;;;20.95;15.25;;;;;;;;;;4948187;28;20074;-63
2022/10/17 09:23:46;;;;;;;25.48;16.42;;;;;;;;;;4964543;28;20076;-63
2022/10/17 09:26:13;;;;;;;21.48;15.93;;;;;;;;;;4965603;28;20478;-63
2022/10/17 09:28:40;;;;;;;20.55;15.70;;;;;;;;;;4943319;28;20126;-62
2022/10/17 09:31:18;;;;;;;23.10;17.48;;;;;;;;;;4943768;28;20035;-63
2022/10/17 09:33:46;;;;;;;27.65;16.52;;;;;;;;;;4962247;28;20093;-62
2022/10/17 09:36:23;;;;;;;27.58;16.45;;;;;;;;;;4949551;28;20109;-62
2022/10/17 09:38:51;;;;;;;29.60;18.45;;;;;;;;;;4967092;28;20074;-63
2022/10/17 09:41:19;;;;;;;30.48;18.38;;;;;;;;;;4947623;28;20065;-63
2022/10/17 09:43:46;;;;;;;30.98;18.08;;;;;;;;;;4947732;28;20503;-63
2022/10/17 09:46:16;;;;;;;27.95;17.55;;;;;;;;;;4962045;28;20035;-65
2022/10/17 09:48:46;;;;;;;30.67;18.88;;;;;;;;;;4964335;28;20078;-63
2022/10/17 09:51:12;;;;;;;37.92;19.42;;;;;;;;;;4963243;28;20138;-63
2022/10/17 09:53:40;;;;;;;37.95;19.27;;;;;;;;;;4943285;28;20380;-62
2022/10/17 09:56:09;;;;;;;35.92;19.20;;;;;;;;;;4965427;28;20118;-63
2022/10/17 09:58:40;;;;;;;40.78;20.98;;;;;;;;;;4968166;28;20109;-63
2022/10/17 10:01:15;;;;;;;39.78;21.48;;;;;;;;;;4963699;28;20073;-63
2022/10/17 10:03:41;;;;;;;39.97;21.27;;;;;;;;;;4963642;28;20035;-63
2022/10/17 10:06:13;;;;;;;37.17;21.45;;;;;;;;;;4968523;28;20061;-62
2022/10/17 10:08:53;;;;;;;40.03;22.35;;;;;;;;;;4948500;28;20042;-64
2022/10/17 10:11:24;;;;;;;42.42;22.38;;;;;;;;;;4973394;28;20061;-64
2022/10/17 10:13:50;;;;;;;44.78;22.75;;;;;;;;;;4985583;28;20042;-64
2022/10/17 10:16:16;;;;;;;43.08;22.30;;;;;;;;;;4985275;28;20054;-64
2022/10/17 10:18:43;;;;;;;41.53;23.80;;;;;;;;;;4986442;28;20057;-64
2022/10/17 10:21:15;;;;;;;42.20;22.42;;;;;;;;;;4984021;28;20133;-63
2022/10/17 10:23:42;;;;;;;39.25;22.70;;;;;;;;;;4983133;28;20042;-64
2022/10/17 10:26:21;;;;;;;39.45;23.10;;;;;;;;;;4987259;28;20176;-64
2022/10/17 10:28:52;;;;;;;40.47;21.85;;;;;;;;;;4982735;28;20039;-64
2022/10/17 10:31:24;;;;;;;41.60;23.70;;;;;;;;;;4986671;28;20042;-64
2022/10/17 10:33:51;;;;;;;41.67;23.85;;;;;;;;;;4988040;28;20993;-64
2022/10/17 10:36:20;;;;;;;51.22;23.40;;;;;;;;;;4987436;28;20042;-64
2022/10/17 10:38:51;;;;;;;38.38;22.85;;;;;;;;;;4987116;28;20426;-64
2022/10/17 10:41:17;;;;;;;52.72;25.92;;;;;;;;;;4987192;28;20077;-63
2022/10/17 10:43:46;;;;;;;45.70;23.80;;;;;;;;;;4985572;28;20055;-63
2022/10/17 10:46:21;;;;;;;50.40;24.65;;;;;;;;;;4981310;28;20050;-64
2022/10/17 10:48:50;;;;;;;44.58;22.90;;;;;;;;;;4980757;28;20524;-63
2022/10/17 10:51:19;;;;;;;45.83;24.10;;;;;;;;;;4980808;28;20050;-64
2022/10/17 10:53:48;;;;;;;44.50;25.05;;;;;;;;;;4978103;28;20082;-64
2022/10/17 10:56:16;;;;;;;47.75;23.25;;;;;;;;;;4980131;28;20395;-63
2022/10/17 10:58:50;;;;;;;42.17;23.67;;;;;;;;;;4973779;28;20077;-63
2022/10/17 11:01:23;;;;;;;51.13;24.20;;;;;;;;;;4979385;28;20177;-63
2022/10/17 11:03:56;;;;;;;44.15;24.50;;;;;;;;;;4981793;28;20056;-63
2022/10/17 11:06:28;;;;;;;50.08;24.42;;;;;;;;;;4980749;28;20046;-62
2022/10/17 11:08:59;;;;;;;42.22;24.33;;;;;;;;;;4978043;28;20390;-63
2022/10/17 11:11:29;;;;;;;48.05;24.35;;;;;;;;;;4981832;28;20055;-63
2022/10/17 11:14:00;;;;;;;42.65;24.48;;;;;;;;;;4979156;28;20422;-63
2022/10/17 11:16:38;;;;;;;42.63;24.08;;;;;;;;;;4979648;28;20414;-63
2022/10/17 11:19:12;;;;;;;41.15;23.17;;;;;;;;;;4980365;28;20054;-63
2022/10/17 11:21:41;;;;;;;48.70;24.02;;;;;;;;;;4981419;28;20050;-63
2022/10/17 11:24:12;;;;;;;42.70;22.88;;;;;;;;;;4981759;28;20042;-62
2022/10/17 11:26:41;;;;;;;38.70;23.35;;;;;;;;;;4982299;28;20121;-63
2022/10/17 11:29:10;;;;;;;42.28;24.10;;;;;;;;;;4979914;28;20042;-63
2022/10/17 11:31:38;;;;;;;40.03;23.00;;;;;;;;;;4977183;28;20069;-62
2022/10/17 11:34:08;;;;;;;36.80;21.92;;;;;;;;;;4978748;28;20046;-63
2022/10/17 11:36:36;;;;;;;39.08;23.40;;;;;;;;;;4982069;28;20170;-63
2022/10/17 11:39:13;;;;;;;36.35;19.83;;;;;;;;;;4963012;28;20046;-62
2022/10/17 11:41:40;;;;;;;34.10;20.35;;;;;;;;;;4982546;28;20121;-62
2022/10/17 11:44:23;;;;;;;36.85;18.45;;;;;;;;;;4980133;28;20051;-62
2022/10/17 11:46:56;;;;;;;31.75;18.30;;;;;;;;;;4959574;28;20137;-62
2022/10/17 11:49:26;;;;;;;32.67;17.25;;;;;;;;;;4981478;28;20064;-71
2022/10/17 11:51:59;;;;;;;29.60;17.67;;;;;;;;;;4981642;28;20082;-72
2022/10/17 11:54:30;;;;;;;28.35;17.50;;;;;;;;;;4982858;28;20533;-62
2022/10/17 11:57:08;;;;;;;27.83;17.80;;;;;;;;;;4986276;28;20112;-62
2022/10/17 11:59:44;;;;;;;32.50;18.35;;;;;;;;;;4984949;28;20050;-62
2022/10/17 12:02:17;;;;;;;31.50;18.60;;;;;;;;;;4981038;28;20082;-62
2022/10/17 12:04:46;;;;;;;30.65;19.17;;;;;;;;;;4984344;28;20042;-62
2022/10/17 12:07:17;;;;;;;29.17;18.30;;;;;;;;;;4983551;28;20084;-62
2022/10/17 12:09:48;;;;;;;29.00;17.80;;;;;;;;;;4986485;28;20125;-62
2022/10/17 12:12:25;;;;;;;25.77;17.58;;;;;;;;;;4984026;28;20652;-62
2022/10/17 12:14:52;;;;;;;28.63;17.55;;;;;;;;;;4984426;28;20112;-62
2022/10/17 12:17:29;;;;;;;26.35;17.38;;;;;;;;;;4984291;28;20038;-62
2022/10/17 12:20:15;;;;;;;29.90;16.48;;;;;;;;;;4983330;28;20054;-62
2022/10/17 12:22:47;;;;;;;32.45;17.27;;;;;;;;;;4983572;28;20068;-62
2022/10/17 12:25:21;;;;;;;27.80;17.25;;;;;;;;;;4983097;28;20921;-62
2022/10/17 12:27:49;;;;;;;30.42;16.63;;;;;;;;;;4982018;28;20046;-65
2022/10/17 12:30:16;;;;;;;30.20;16.70;;;;;;;;;;4980662;28;20426;-65
2022/10/17 12:32:56;;;;;;;29.65;16.33;;;;;;;;;;4984859;28;20398;-65
2022/10/17 12:35:23;;;;;;;21.08;15.02;;;;;;;;;;4981595;28;20487;-64
2022/10/17 12:37:51;;;;;;;24.25;15.35;;;;;;;;;;4982737;28;20042;-64
2022/10/17 12:40:41;;;;;;;24.45;14.00;;;;;;;;;;4981806;28;20043;-64
2022/10/17 12:43:13;;;;;;;27.77;14.13;;;;;;;;;;4983643;28;20125;-64
2022/10/17 12:45:46;;;;;;;25.23;12.70;;;;;;;;;;4985381;28;20402;-64
2022/10/17 12:48:13;;;;;;;20.33;11.20;;;;;;;;;;4982154;28;20046;-65
2022/10/17 12:50:58;;;;;;;19.50;11.57;;;;;;;;;;4987197;28;20517;-64
2022/10/17 12:53:25;;;;;;;20.40;11.50;;;;;;;;;;4983319;28;20042;-64
2022/10/17 12:55:59;;;;;;;22.23;12.07;;;;;;;;;;4983862;28;20122;-64
2022/10/17 12:58:25;;;;;;;24.17;11.52;;;;;;;;;;4987505;28;20050;-65
2022/10/17 13:00:56;;;;;;;20.95;12.18;;;;;;;;;;4986263;28;20042;-63
2022/10/17 13:03:22;;;;;;;20.08;11.10;;;;;;;;;;4981173;28;20121;-63
2022/10/17 13:05:50;;;;;;;22.90;12.68;;;;;;;;;;4984808;28;20066;-63
2022/10/17 13:08:19;;;;;;;19.42;11.70;;;;;;;;;;4980744;28;20133;-64
2022/10/17 13:10:46;;;;;;;17.90;11.63;;;;;;;;;;4983003;28;20152;-64
2022/10/17 13:13:16;;;;;;;25.60;11.02;;;;;;;;;;4986273;28;20426;-64
2022/10/17 13:15:47;;;;;;;15.40;10.10;;;;;;;;;;4984121;28;20112;-64
2022/10/17 13:18:19;;;;;;;15.93;8.55;;;;;;;;;;4983340;28;20042;-64
2022/10/17 13:20:54;;;;;;;12.85;8.38;;;;;;;;;;4986315;28;20506;-64
2022/10/17 13:23:22;;;;;;;17.15;8.35;;;;;;;;;;4984579;28;20118;-64
2022/10/17 13:26:01;;;;;;;16.40;8.95;;;;;;;;;;4983958;28;20056;-64
2022/10/17 13:28:27;;;;;;;11.10;6.60;;;;;;;;;;4983726;28;20113;-64
2022/10/17 13:30:54;;;;;;;16.23;6.43;;;;;;;;;;4983698;28;20129;-64
2022/10/17 13:33:34;;;;;;;18.05;7.85;;;;;;;;;;4982427;28;20096;-64
2022/10/17 13:36:02;;;;;;;14.68;7.38;;;;;;;;;;4984992;28;20096;-64
2022/10/17 13:38:31;;;;;;;12.63;5.95;;;;;;;;;;4983332;28;20046;-63
2022/10/17 13:40:57;;;;;;;14.88;7.05;;;;;;;;;;4984877;28;20517;-64
2022/10/17 13:43:24;;;;;;;11.88;6.43;;;;;;;;;;4985312;28;20056;-64
2022/10/17 13:45:52;;;;;;;16.48;7.53;;;;;;;;;;4983560;28;20746;-64
2022/10/17 13:48:21;;;;;;;17.25;7.97;;;;;;;;;;4981492;28;20486;-64
2022/10/17 13:50:49;;;;;;;12.95;6.72;;;;;;;;;;4983595;28;20097;-64
2022/10/17 13:53:18;;;;;;;10.70;6.85;;;;;;;;;;4980393;28;20090;-64
2022/10/17 13:55:52;;;;;;;14.48;6.88;;;;;;;;;;4983147;28;20068;-64
2022/10/17 13:58:18;;;;;;;13.00;6.22;;;;;;;;;;4982736;28;20675;-64
2022/10/17 14:00:45;;;;;;;17.77;6.88;;;;;;;;;;4982857;28;20058;-64
2022/10/17 14:03:11;;;;;;;19.20;6.07;;;;;;;;;;4982153;28;20136;-64
2022/10/17 14:05:56;;;;;;;11.73;5.60;;;;;;;;;;4984007;28;20121;-64
2022/10/17 14:08:22;;;;;;;14.90;5.88;;;;;;;;;;4982354;28;20049;-63
2022/10/17 14:10:49;;;;;;;13.73;6.00;;;;;;;;;;4981376;28;20406;-64
2022/10/17 14:13:24;;;;;;;12.98;5.97;;;;;;;;;;4983565;28;20053;-64
2022/10/17 14:15:50;;;;;;;15.98;5.43;;;;;;;;;;4984008;28;20046;-64
2022/10/17 14:18:20;;;;;;;9.75;5.30;;;;;;;;;;4984158;28;20054;-64
2022/10/17 14:20:47;;;;;;;11.40;4.43;;;;;;;;;;4983092;28;20046;-64
2022/10/17 14:23:34;;;;;;;12.38;5.78;;;;;;;;;;4984723;28;20061;-64
2022/10/17 14:26:05;;;;;;;9.55;4.72;;;;;;;;;;4983709;28;20050;-63
2022/10/17 14:28:31;;;;;;;11.60;5.22;;;;;;;;;;4983549;28;20038;-64
2022/10/17 14:31:09;;;;;;;11.45;4.80;;;;;;;;;;4983616;28;20046;-64